createdAt,value
2022-09-17T00:01:52.300Z,52.76
2022-09-17T00:03:55.408Z,52.89
2022-09-17T00:06:02.109Z,51.85
2022-09-17T00:08:04.252Z,51.61
2022-09-17T00:10:06.450Z,51.61
2022-09-17T00:12:08.005Z,52.08
2022-09-17T00:14:14.146Z,51.56
2022-09-17T00:16:23.510Z,51.83
2022-09-17T00:18:25.096Z,51.39
2022-09-17T00:20:27.101Z,51.30
2022-09-17T00:22:30.025Z,51.99
2022-09-17T00:24:31.521Z,51.85
2022-09-17T00:26:35.003Z,51.02
2022-09-17T00:28:36.688Z,52.11
2022-09-17T00:30:40.668Z,51.29
2022-09-17T00:32:42.153Z,51.76
2022-09-17T00:34:43.688Z,51.72
2022-09-17T00:36:45.198Z,51.93
2022-09-17T00:38:50.516Z,51.90
2022-09-17T00:40:52.117Z,51.34
2022-09-17T00:42:53.627Z,52.00
2022-09-17T00:44:56.997Z,51.09
2022-09-17T00:46:58.605Z,51.34
2022-09-17T00:49:04.363Z,51.94
2022-09-17T00:51:16.323Z,52.07
2022-09-17T00:53:21.445Z,52.76
2022-09-17T00:55:27.965Z,52.45
2022-09-17T00:57:31.005Z,51.32
2022-09-17T00:59:32.767Z,51.89
2022-09-17T01:01:34.321Z,51.13
2022-09-17T01:03:35.827Z,51.79
2022-09-17T01:05:47.114Z,52.52
2022-09-17T01:08:01.235Z,51.84
2022-09-17T01:10:12.595Z,52.59
2022-09-17T01:12:38.586Z,52.19
2022-09-17T01:15:03.392Z,52.53
2022-09-17T01:17:14.939Z,52.10
2022-09-17T01:19:42.686Z,52.90
2022-09-17T01:21:56.447Z,52.87
2022-09-17T01:24:19.741Z,52.38
2022-09-17T01:26:44.677Z,52.35
2022-09-17T01:28:56.993Z,52.12
2022-09-17T01:31:16.932Z,52.60
2022-09-17T01:33:26.374Z,52.61
2022-09-17T01:35:36.337Z,52.38
2022-09-17T01:37:48.111Z,52.43
2022-09-17T01:39:56.679Z,52.37
2022-09-17T01:42:07.317Z,52.34
2022-09-17T01:44:14.022Z,52.29
2022-09-17T01:46:22.008Z,52.81
2022-09-17T01:48:29.052Z,51.74
2022-09-17T01:50:37.421Z,53.13
2022-09-17T01:52:41.770Z,51.97
2022-09-17T01:54:46.812Z,52.74
2022-09-17T01:56:55.006Z,52.65
2022-09-17T01:59:02.178Z,52.45
2022-09-17T02:01:07.543Z,52.66
2022-09-17T02:03:17.253Z,50.88
2022-09-17T02:05:24.416Z,52.60
2022-09-17T02:07:27.440Z,51.24
2022-09-17T02:09:33.472Z,52.77
2022-09-17T02:11:39.452Z,52.49
2022-09-17T02:13:46.121Z,52.30
2022-09-17T02:15:52.202Z,52.54
2022-09-17T02:17:57.314Z,53.20
2022-09-17T02:20:01.148Z,53.16
2022-09-17T02:22:11.829Z,53.12
2022-09-17T02:24:18.878Z,53.44
2022-09-17T02:26:22.444Z,53.06
2022-09-17T02:28:33.152Z,52.72
2022-09-17T02:30:34.753Z,52.77
2022-09-17T02:32:36.310Z,52.81
2022-09-17T02:34:38.561Z,53.10
2022-09-17T02:36:41.486Z,52.75
2022-09-17T02:38:45.051Z,53.70
2022-09-17T02:40:53.032Z,52.72
2022-09-17T02:43:08.400Z,53.37
2022-09-17T02:45:21.562Z,53.46
2022-09-17T02:47:51.605Z,53.90
2022-09-17T02:50:08.166Z,53.98
2022-09-17T02:52:21.499Z,53.08
2022-09-17T02:54:28.898Z,53.85
2022-09-17T02:56:43.399Z,53.42
2022-09-17T02:58:56.324Z,53.76
2022-09-17T03:01:04.501Z,54.10
2022-09-17T03:03:10.925Z,54.89
2022-09-17T03:05:13.269Z,54.02
2022-09-17T03:07:18.719Z,53.11
2022-09-17T03:09:20.252Z,53.01
2022-09-17T03:11:21.794Z,53.26
2022-09-17T03:13:23.403Z,53.79
2022-09-17T03:15:25.042Z,54.19
2022-09-17T03:17:26.616Z,54.32
2022-09-17T03:19:28.064Z,54.77
2022-09-17T03:21:29.638Z,53.80
2022-09-17T03:23:32.600Z,53.63
2022-09-17T03:25:34.486Z,54.21
2022-09-17T03:27:36.034Z,53.23
2022-09-17T03:29:37.891Z,53.37
2022-09-17T03:31:39.607Z,54.52
2022-09-17T03:33:42.933Z,53.70
2022-09-17T03:35:45.012Z,53.02
2022-09-17T03:37:46.527Z,53.58
2022-09-17T03:39:49.640Z,52.80
2022-09-17T03:41:51.174Z,52.79
2022-09-17T03:43:53.535Z,53.13
2022-09-17T03:45:55.115Z,53.12
2022-09-17T03:47:56.591Z,52.97
2022-09-17T03:49:58.125Z,52.97
2022-09-17T03:51:59.626Z,52.74
2022-09-17T03:54:01.111Z,52.78
2022-09-17T03:56:06.162Z,52.06
2022-09-17T03:58:08.171Z,53.30
2022-09-17T04:00:11.125Z,52.51
2022-09-17T04:02:12.909Z,52.72
2022-09-17T04:04:14.502Z,52.73
2022-09-17T04:06:16.026Z,52.47
2022-09-17T04:08:17.556Z,52.53
2022-09-17T04:10:19.068Z,52.75
2022-09-17T04:12:21.962Z,52.66
2022-09-17T04:14:23.666Z,52.83
2022-09-17T04:16:25.325Z,53.09
2022-09-17T04:18:26.889Z,52.73
2022-09-17T04:20:28.685Z,52.06
2022-09-17T04:22:31.389Z,51.69
2022-09-17T04:24:32.961Z,51.77
2022-09-17T04:26:34.649Z,52.13
2022-09-17T04:28:37.744Z,51.75
2022-09-17T04:30:39.416Z,51.58
2022-09-17T04:32:41.013Z,51.60
2022-09-17T04:34:42.652Z,51.60
2022-09-17T04:36:44.110Z,51.45
2022-09-17T04:38:47.926Z,51.87
2022-09-17T04:40:49.582Z,51.27
2022-09-17T04:42:52.353Z,51.55
2022-09-17T04:44:55.227Z,51.79
2022-09-17T04:46:56.800Z,51.62
2022-09-17T04:48:58.657Z,52.29
2022-09-17T04:51:00.255Z,51.74
2022-09-17T04:53:01.946Z,52.32
2022-09-17T04:55:04.032Z,51.26
2022-09-17T04:57:07.505Z,51.87
2022-09-17T04:59:09.304Z,51.69
2022-09-17T05:01:12.521Z,52.30
2022-09-17T05:03:14.196Z,51.65
2022-09-17T05:05:17.600Z,53.29
2022-09-17T05:07:19.124Z,52.84
2022-09-17T05:09:20.601Z,53.85
2022-09-17T05:11:22.222Z,54.62
2022-09-17T05:13:23.768Z,54.35
2022-09-17T05:15:25.849Z,54.30
2022-09-17T05:17:28.980Z,55.25
2022-09-17T05:19:30.505Z,55.16
2022-09-17T05:21:32.076Z,55.70
2022-09-17T05:23:33.705Z,55.83
2022-09-17T05:25:35.236Z,55.98
2022-09-17T05:27:36.912Z,56.09
2022-09-17T05:29:38.463Z,56.87
2022-09-17T05:31:40.258Z,56.97
2022-09-17T05:33:43.198Z,56.22
2022-09-17T05:35:44.976Z,57.81
2022-09-17T05:37:46.451Z,57.07
2022-09-17T05:39:48.010Z,57.44
2022-09-17T05:41:49.574Z,56.47
2022-09-17T05:43:51.265Z,56.73
2022-09-17T05:45:52.838Z,57.15
2022-09-17T05:47:55.547Z,57.24
2022-09-17T05:49:58.418Z,57.59
2022-09-17T05:51:59.948Z,56.58
2022-09-17T05:54:01.552Z,57.58
2022-09-17T05:56:03.216Z,56.23
2022-09-17T05:58:11.664Z,57.87
2022-09-17T06:00:14.257Z,57.32
2022-09-17T06:02:15.851Z,57.40
2022-09-17T06:04:17.524Z,58.62
2022-09-17T06:06:20.447Z,56.71
2022-09-17T06:08:22.027Z,57.21
2022-09-17T06:10:23.570Z,58.30
2022-09-17T06:12:25.124Z,56.39
2022-09-17T06:14:26.631Z,56.87
2022-09-17T06:16:28.399Z,56.53
2022-09-17T06:18:30.995Z,56.02
2022-09-17T06:20:32.796Z,55.96
2022-09-17T06:22:35.647Z,56.26
2022-09-17T06:24:37.213Z,56.15
2022-09-17T06:26:38.722Z,57.37
2022-09-17T06:28:41.855Z,57.47
2022-09-17T06:30:43.606Z,57.34
2022-09-17T06:32:45.146Z,57.09
2022-09-17T06:34:46.665Z,57.14
2022-09-17T06:36:48.822Z,56.65
2022-09-17T06:38:51.826Z,55.91
2022-09-17T06:40:53.907Z,57.33
2022-09-17T06:42:57.204Z,56.29
2022-09-17T06:45:00.380Z,56.90
2022-09-17T06:47:03.950Z,56.84
2022-09-17T06:49:05.565Z,57.12
2022-09-17T06:51:08.700Z,56.18
2022-09-17T06:53:10.256Z,55.86
2022-09-17T06:55:13.495Z,55.97
2022-09-17T06:57:15.055Z,55.49
2022-09-17T06:59:16.725Z,55.58
2022-09-17T07:01:18.344Z,56.37
2022-09-17T07:03:23.132Z,55.62
2022-09-17T07:05:26.064Z,55.38
2022-09-17T07:07:30.931Z,55.60
2022-09-17T07:09:32.457Z,55.67
2022-09-17T07:11:35.311Z,55.41
2022-09-17T07:13:37.107Z,56.41
2022-09-17T07:15:38.751Z,54.54
2022-09-17T07:17:40.588Z,54.45
2022-09-17T07:19:42.462Z,55.78
2022-09-17T07:21:44.165Z,55.31
2022-09-17T07:23:45.740Z,54.61
2022-09-17T07:25:51.586Z,54.70
2022-09-17T07:27:54.549Z,56.20
2022-09-17T07:29:56.106Z,55.59
2022-09-17T07:31:58.077Z,56.93
2022-09-17T07:33:59.597Z,54.92
2022-09-17T07:36:03.486Z,54.40
2022-09-17T07:38:05.183Z,54.46
2022-09-17T07:40:08.809Z,53.04
2022-09-17T07:42:10.870Z,52.93
2022-09-17T07:44:13.779Z,51.80
2022-09-17T07:46:16.821Z,50.33
2022-09-17T07:48:18.628Z,50.28
2022-09-17T07:50:20.157Z,49.87
2022-09-17T07:52:21.706Z,48.68
2022-09-17T07:56:26.599Z,47.08
2022-09-17T07:58:30.052Z,48.26
2022-09-17T08:00:33.025Z,46.03
2022-09-17T08:02:34.655Z,45.73
2022-09-17T08:04:36.215Z,44.96
2022-09-17T08:06:38.256Z,45.00
2022-09-17T08:08:40.841Z,43.69
2022-09-17T08:10:42.508Z,44.84
2022-09-17T08:12:44.023Z,44.27
2022-09-17T08:14:45.626Z,45.64
2022-09-17T08:16:48.767Z,45.79
2022-09-17T08:18:55.241Z,46.64
2022-09-17T08:20:57.866Z,46.70
2022-09-17T08:23:00.300Z,46.77
2022-09-17T08:25:01.872Z,46.85
2022-09-17T08:27:03.926Z,47.76
2022-09-17T08:29:05.601Z,47.27
2022-09-17T08:31:08.862Z,47.55
2022-09-17T08:33:11.804Z,46.97
2022-09-17T08:35:13.379Z,47.66
2022-09-17T08:37:14.946Z,45.87
2022-09-17T08:39:16.508Z,47.62
2022-09-17T08:41:24.090Z,46.15
2022-09-17T08:43:27.406Z,46.33
2022-09-17T08:45:29.480Z,46.03
2022-09-17T08:47:34.711Z,46.80
2022-09-17T08:49:47.645Z,45.26
2022-09-17T08:52:01.485Z,46.10
2022-09-17T08:54:09.948Z,45.49
2022-09-17T08:56:15.831Z,44.58
2022-09-17T08:58:54.581Z,46.04
2022-09-17T09:01:05.083Z,48.78
2022-09-17T09:03:25.215Z,50.92
2022-09-17T09:05:31.627Z,51.69
2022-09-17T09:07:37.796Z,51.76
2022-09-17T09:09:46.174Z,52.62
2022-09-17T09:11:49.921Z,52.30
2022-09-17T09:13:57.511Z,52.19
2022-09-17T09:16:02.110Z,52.13
2022-09-17T09:18:16.348Z,53.20
2022-09-17T09:20:28.405Z,51.71
2022-09-17T09:22:45.301Z,50.92
2022-09-17T09:24:57.548Z,49.28
2022-09-17T09:27:09.900Z,50.66
2022-09-17T09:29:21.141Z,49.42
2022-09-17T09:31:34.782Z,52.44
2022-09-17T09:33:40.360Z,51.52
2022-09-17T09:35:44.545Z,50.77
2022-09-17T09:37:54.305Z,51.85
2022-09-17T09:40:03.062Z,52.11
2022-09-17T09:42:11.149Z,51.65
2022-09-17T09:44:14.781Z,50.23
2022-09-17T09:46:40.969Z,52.63
2022-09-17T09:48:53.221Z,51.00
2022-09-17T09:51:10.382Z,48.77
2022-09-17T09:53:22.218Z,49.98
2022-09-17T09:55:42.245Z,47.44
2022-09-17T09:57:47.225Z,49.19
2022-09-17T09:59:49.001Z,48.26
2022-09-17T10:01:51.172Z,46.88
2022-09-17T10:03:53.148Z,48.22
2022-09-17T10:05:57.194Z,48.37
2022-09-17T10:07:58.987Z,45.65
2022-09-17T10:10:09.771Z,47.82
2022-09-17T10:12:20.958Z,49.29
2022-09-17T10:14:24.446Z,48.41
2022-09-17T10:16:27.620Z,47.64
2022-09-17T10:18:29.234Z,46.65
2022-09-17T10:20:32.295Z,48.30
2022-09-17T10:22:35.543Z,48.03
2022-09-17T10:24:39.052Z,43.31
2022-09-17T10:26:42.001Z,44.72
2022-09-17T10:28:48.347Z,42.94
2022-09-17T10:30:56.787Z,43.99
2022-09-17T10:33:16.360Z,48.76
2022-09-17T10:35:33.812Z,47.61
2022-09-17T10:37:42.354Z,48.18
2022-09-17T10:39:43.879Z,47.05
2022-09-17T10:41:54.152Z,47.45
2022-09-17T10:43:55.712Z,44.59
2022-09-17T10:45:59.905Z,45.42
2022-09-17T10:48:02.255Z,44.52
2022-09-17T10:50:07.861Z,42.49
2022-09-17T10:52:17.741Z,44.40
2022-09-17T10:54:39.834Z,44.17
2022-09-17T10:56:46.846Z,44.10
2022-09-17T10:58:56.719Z,43.59
2022-09-17T11:01:07.811Z,41.31
2022-09-17T11:03:48.139Z,38.22
2022-09-17T11:06:16.195Z,42.10
2022-09-17T11:08:27.266Z,39.61
2022-09-17T11:10:34.904Z,41.75
2022-09-17T11:13:09.316Z,36.99
2022-09-17T11:15:28.484Z,41.18
2022-09-17T11:17:51.795Z,42.20
2022-09-17T11:20:01.200Z,43.33
2022-09-17T11:22:08.419Z,37.80
2022-09-17T11:24:42.323Z,40.90
2022-09-17T11:26:52.955Z,42.28
2022-09-17T11:29:10.093Z,41.78
2022-09-17T11:31:28.187Z,42.63
2022-09-17T11:33:58.789Z,44.14
2022-09-17T11:36:10.316Z,43.99
2022-09-17T11:38:18.014Z,46.17
2022-09-17T11:40:25.941Z,48.68
2022-09-17T11:42:32.516Z,43.97
2022-09-17T11:44:39.748Z,45.61
2022-09-17T11:46:46.470Z,45.77
2022-09-17T11:48:54.246Z,45.54
2022-09-17T11:51:01.759Z,45.40
2022-09-17T11:53:09.140Z,44.78
2022-09-17T11:55:20.446Z,44.19
2022-09-17T11:57:25.681Z,43.82
2022-09-17T11:59:35.334Z,45.48
2022-09-17T12:01:41.688Z,45.76
2022-09-17T12:03:51.581Z,44.96
2022-09-17T12:05:56.964Z,44.51
2022-09-17T12:08:06.040Z,42.38
2022-09-17T12:10:25.935Z,41.89
2022-09-17T12:12:49.098Z,41.18
2022-09-17T12:14:55.321Z,41.03
2022-09-17T12:16:59.796Z,39.86
2022-09-17T12:19:14.292Z,40.72
2022-09-17T12:21:21.730Z,39.07
2022-09-17T12:23:33.804Z,41.78
2022-09-17T12:25:48.838Z,39.27
2022-09-17T12:27:57.079Z,41.13
2022-09-17T12:30:06.680Z,39.11
2022-09-17T12:32:25.975Z,39.50
2022-09-17T12:34:37.596Z,39.15
2022-09-17T12:36:44.699Z,37.98
2022-09-17T12:39:16.411Z,40.39
2022-09-17T12:41:21.252Z,38.86
2022-09-17T12:43:56.007Z,38.99
2022-09-17T12:46:15.362Z,40.98
2022-09-17T12:48:42.492Z,38.41
2022-09-17T12:50:54.976Z,44.33
2022-09-17T12:53:11.271Z,37.83
2022-09-17T12:55:34.256Z,44.35
2022-09-17T12:57:47.023Z,38.58
2022-09-17T12:59:53.451Z,38.72
2022-09-17T13:01:59.613Z,36.61
2022-09-17T13:04:15.713Z,37.08
2022-09-17T13:06:35.099Z,38.87
2022-09-17T13:09:09.860Z,38.99
2022-09-17T13:11:31.129Z,38.62
2022-09-17T13:13:40.410Z,42.18
2022-09-17T13:15:55.494Z,39.64
2022-09-17T13:18:23.680Z,40.66
2022-09-17T13:20:31.409Z,39.04
2022-09-17T13:22:44.740Z,39.17
2022-09-17T13:24:48.115Z,40.39
2022-09-17T13:26:49.724Z,40.89
2022-09-17T13:28:52.243Z,40.44
2022-09-17T13:30:58.831Z,39.96
2022-09-17T13:33:03.253Z,44.33
2022-09-17T13:35:38.178Z,39.49
2022-09-17T13:37:43.388Z,40.12
2022-09-17T13:39:47.599Z,41.72
2022-09-17T13:42:02.247Z,38.34
2022-09-17T13:44:05.462Z,40.10
2022-09-17T13:46:21.485Z,37.80
2022-09-17T13:48:26.065Z,38.12
2022-09-17T13:50:30.730Z,39.74
2022-09-17T13:52:39.883Z,41.29
2022-09-17T13:54:42.867Z,40.53
2022-09-17T13:56:46.780Z,44.78
2022-09-17T13:58:48.360Z,38.74
2022-09-17T14:00:52.762Z,39.87
2022-09-17T14:02:54.680Z,42.29
2022-09-17T14:05:16.527Z,39.06
2022-09-17T14:07:45.952Z,40.11
2022-09-17T14:09:53.739Z,40.02
2022-09-17T14:11:55.406Z,41.05
2022-09-17T14:14:28.907Z,38.52
2022-09-17T14:16:44.413Z,38.90
2022-09-17T14:18:57.363Z,40.99
2022-09-17T14:21:06.027Z,40.03
2022-09-17T14:23:12.225Z,43.66
2022-09-17T14:25:19.778Z,43.38
2022-09-17T14:27:46.486Z,45.81
2022-09-17T14:30:03.901Z,41.07
2022-09-17T14:32:07.265Z,45.97
2022-09-17T14:34:18.844Z,47.94
2022-09-17T14:36:22.711Z,40.93
2022-09-17T14:38:31.941Z,37.68
2022-09-17T14:40:35.455Z,37.14
2022-09-17T14:42:38.683Z,35.02
2022-09-17T14:44:51.130Z,37.89
2022-09-17T14:46:58.593Z,46.13
2022-09-17T14:49:14.538Z,47.45
2022-09-17T14:51:25.770Z,43.71
2022-09-17T14:53:27.303Z,36.16
2022-09-17T14:55:31.756Z,44.90
2022-09-17T14:57:36.009Z,37.70
2022-09-17T14:59:48.519Z,36.30
2022-09-17T15:01:50.250Z,38.49
2022-09-17T15:04:21.292Z,38.69
2022-09-17T15:06:23.548Z,39.41
2022-09-17T15:08:27.348Z,38.26
2022-09-17T15:10:28.958Z,39.99
2022-09-17T15:12:30.563Z,42.88
2022-09-17T15:14:36.514Z,36.72
2022-09-17T15:16:38.459Z,37.42
2022-09-17T15:18:43.213Z,38.49
2022-09-17T15:20:47.546Z,38.79
2022-09-17T15:22:56.139Z,44.24
2022-09-17T15:25:01.860Z,38.73
2022-09-17T15:27:08.936Z,36.75
2022-09-17T15:29:12.289Z,39.68
2022-09-17T15:31:18.147Z,38.39
2022-09-17T15:33:19.909Z,37.87
2022-09-17T15:35:26.699Z,37.87
2022-09-17T15:37:28.215Z,36.82
2022-09-17T15:39:31.097Z,39.85
2022-09-17T15:41:34.213Z,38.96
2022-09-17T15:43:39.214Z,42.54
2022-09-17T15:45:41.117Z,46.00
2022-09-17T15:48:03.788Z,39.60
2022-09-17T15:50:14.160Z,42.43
2022-09-17T15:52:28.926Z,38.26
2022-09-17T15:54:32.487Z,38.14
2022-09-17T15:56:36.184Z,40.72
2022-09-17T15:58:53.275Z,40.58
2022-09-17T16:01:37.219Z,39.68
2022-09-17T16:04:16.450Z,39.27
2022-09-17T16:06:37.573Z,39.93
2022-09-17T16:08:39.112Z,40.65
2022-09-17T16:10:40.665Z,40.57
2022-09-17T16:12:42.334Z,40.40
2022-09-17T16:14:45.773Z,40.53
2022-09-17T16:16:47.483Z,42.30
2022-09-17T16:18:49.370Z,47.87
2022-09-17T16:20:52.299Z,45.63
2022-09-17T16:22:54.119Z,46.91
2022-09-17T16:24:55.735Z,46.26
2022-09-17T16:26:57.287Z,47.98
2022-09-17T16:29:03.343Z,46.32
2022-09-17T16:31:06.607Z,48.32
2022-09-17T16:33:10.979Z,50.31
2022-09-17T16:35:17.090Z,48.96
2022-09-17T16:37:20.544Z,49.27
2022-09-17T16:39:22.256Z,49.64
2022-09-17T16:41:23.942Z,48.38
2022-09-17T16:43:25.704Z,48.37
2022-09-17T16:45:29.138Z,48.85
2022-09-17T16:47:34.403Z,48.92
2022-09-17T16:49:36.067Z,50.08
2022-09-17T16:51:40.023Z,52.09
2022-09-17T16:53:42.934Z,48.27
2022-09-17T16:55:44.570Z,48.24
2022-09-17T16:57:51.763Z,49.60
2022-09-17T16:59:53.721Z,50.51
2022-09-17T17:01:55.448Z,51.42
2022-09-17T17:03:57.042Z,52.79
2022-09-17T17:05:58.840Z,52.60
2022-09-17T17:08:05.902Z,53.82
2022-09-17T17:10:10.223Z,54.05
2022-09-17T17:12:14.946Z,54.90
2022-09-17T17:14:16.618Z,55.17
2022-09-17T17:16:18.271Z,54.71
2022-09-17T17:18:20.307Z,55.52
2022-09-17T17:20:22.076Z,57.72
2022-09-17T17:22:24.209Z,58.29
2022-09-17T17:24:25.997Z,57.64
2022-09-17T17:26:29.078Z,58.13
2022-09-17T17:28:31.763Z,59.25
2022-09-17T17:30:35.175Z,58.32
2022-09-17T17:32:37.217Z,57.89
2022-09-17T17:34:38.804Z,59.60
2022-09-17T17:36:40.447Z,59.20
2022-09-17T17:38:42.345Z,58.71
2022-09-17T17:40:44.360Z,59.26
2022-09-17T17:42:51.850Z,60.34
2022-09-17T17:44:53.417Z,59.12
2022-09-17T17:46:55.063Z,60.58
2022-09-17T17:49:01.520Z,59.57
2022-09-17T17:51:03.808Z,58.23
2022-09-17T17:53:05.412Z,59.00
2022-09-17T17:55:09.952Z,59.61
2022-09-17T17:57:11.830Z,59.68
2022-09-17T17:59:17.440Z,61.10
2022-09-17T18:01:21.486Z,60.63
2022-09-17T18:03:23.951Z,60.56
2022-09-17T18:05:25.805Z,59.61
2022-09-17T18:07:29.603Z,59.38
2022-09-17T18:09:31.308Z,59.03
2022-09-17T18:11:33.689Z,59.32
2022-09-17T18:13:35.907Z,58.88
2022-09-17T18:15:38.850Z,60.10
2022-09-17T18:17:40.405Z,60.26
2022-09-17T18:19:42.046Z,59.40
2022-09-17T18:21:43.622Z,59.30
2022-09-17T18:23:46.232Z,58.61
2022-09-17T18:25:54.690Z,60.21
2022-09-17T18:27:56.242Z,59.70
2022-09-17T18:29:57.893Z,59.13
2022-09-17T18:32:02.914Z,58.42
2022-09-17T18:34:06.344Z,58.72
2022-09-17T18:36:07.926Z,59.22
2022-09-17T18:38:09.500Z,58.80
2022-09-17T18:40:11.246Z,59.36
2022-09-17T18:42:12.951Z,57.86
2022-09-17T18:44:14.695Z,58.61
2022-09-17T18:46:16.660Z,57.71
2022-09-17T18:48:19.810Z,57.18
2022-09-17T18:50:21.439Z,59.13
2022-09-17T18:52:23.099Z,59.87
2022-09-17T18:54:24.936Z,58.45
2022-09-17T18:56:29.334Z,57.83
2022-09-17T18:58:31.068Z,56.25
2022-09-17T19:00:32.957Z,56.15
2022-09-17T19:02:35.217Z,55.79
2022-09-17T19:04:38.565Z,57.05
2022-09-17T19:06:40.313Z,56.85
2022-09-17T19:08:42.722Z,57.30
2022-09-17T19:10:50.443Z,57.73
2022-09-17T19:12:52.035Z,56.83
2022-09-17T19:14:53.560Z,58.00
2022-09-17T19:16:55.221Z,57.71
2022-09-17T19:18:56.821Z,58.39
2022-09-17T19:21:00.989Z,58.30
2022-09-17T19:23:02.940Z,57.37
2022-09-17T19:25:05.463Z,59.31
2022-09-17T19:27:07.035Z,58.70
2022-09-17T19:29:08.676Z,59.00
2022-09-17T19:31:17.141Z,58.84
2022-09-17T19:33:18.756Z,59.07
2022-09-17T19:35:20.676Z,58.47
2022-09-17T19:37:23.781Z,58.60
2022-09-17T19:39:25.371Z,57.71
2022-09-17T19:41:27.159Z,57.34
2022-09-17T19:43:29.644Z,57.51
2022-09-17T19:45:31.208Z,57.10
2022-09-17T19:47:32.945Z,58.32
2022-09-17T19:49:34.526Z,58.37
2022-09-17T19:51:36.599Z,57.53
2022-09-17T19:53:39.743Z,57.35
2022-09-17T19:55:43.209Z,58.53
2022-09-17T19:57:44.975Z,58.17
2022-09-17T19:59:46.777Z,57.97
2022-09-17T20:01:49.774Z,58.50
2022-09-17T20:03:51.567Z,57.92
2022-09-17T20:05:59.053Z,57.74
2022-09-17T20:08:01.024Z,58.17
2022-09-17T20:10:04.227Z,58.30
2022-09-17T20:12:06.217Z,58.88
2022-09-17T20:14:09.141Z,58.33
2022-09-17T20:16:12.867Z,59.05
2022-09-17T20:18:16.907Z,58.34
2022-09-17T20:20:20.283Z,58.29
2022-09-17T20:22:21.948Z,58.38
2022-09-17T20:24:23.701Z,57.94
2022-09-17T20:26:27.184Z,58.27
2022-09-17T20:28:29.357Z,58.64
2022-09-17T20:30:31.020Z,58.18
2022-09-17T20:32:32.578Z,57.72
2022-09-17T20:34:34.328Z,58.01
2022-09-17T20:36:36.114Z,57.95
2022-09-17T20:39:10.433Z,57.67
2022-09-17T20:41:01.205Z,56.53
2022-09-17T20:43:04.435Z,56.13
2022-09-17T20:45:08.954Z,56.69
2022-09-17T20:47:10.673Z,56.49
2022-09-17T20:49:12.378Z,57.02
2022-09-17T20:51:15.484Z,56.98
2022-09-17T20:53:17.189Z,55.98
2022-09-17T20:55:18.727Z,55.87
2022-09-17T20:57:20.512Z,56.03
2022-09-17T20:59:23.623Z,56.27
2022-09-17T21:01:27.437Z,56.18
2022-09-17T21:03:29.130Z,55.62
2022-09-17T21:05:30.797Z,54.46
2022-09-17T21:07:32.422Z,55.42
2022-09-17T21:09:34.168Z,55.46
2022-09-17T21:11:36.151Z,55.38
2022-09-17T21:13:38.196Z,54.89
2022-09-17T21:15:41.308Z,55.76
2022-09-17T21:17:42.867Z,55.17
2022-09-17T21:19:46.474Z,55.47
2022-09-17T21:21:48.076Z,56.00
2022-09-17T21:23:49.851Z,54.80
2022-09-17T21:25:51.831Z,55.78
2022-09-17T21:27:55.153Z,55.12
2022-09-17T21:29:56.716Z,55.51
2022-09-17T21:31:59.978Z,54.97
2022-09-17T21:34:04.405Z,54.57
2022-09-17T21:36:08.299Z,54.90
2022-09-17T21:38:09.954Z,55.24
2022-09-17T21:40:11.578Z,55.91
2022-09-17T21:42:13.261Z,55.75
2022-09-17T21:44:15.123Z,56.15
2022-09-17T21:46:18.737Z,55.91
2022-09-17T21:48:21.950Z,55.62
2022-09-17T21:50:23.656Z,54.17
2022-09-17T21:52:25.226Z,54.45
2022-09-17T21:54:26.822Z,54.74
2022-09-17T21:56:29.356Z,54.83
2022-09-17T21:58:30.887Z,55.47
2022-09-17T22:00:32.554Z,56.08
2022-09-17T22:02:34.241Z,54.27
2022-09-17T22:04:37.367Z,55.76
2022-09-17T22:06:39.401Z,56.58
2022-09-17T22:08:41.560Z,56.36
2022-09-17T22:10:43.199Z,55.13
2022-09-17T22:12:44.907Z,57.52
2022-09-17T22:14:46.653Z,55.09
2022-09-17T22:16:50.122Z,56.51
2022-09-17T22:18:51.954Z,56.27
2022-09-17T22:20:55.125Z,55.74
2022-09-17T22:22:56.695Z,56.43
2022-09-17T22:24:58.307Z,55.74
2022-09-17T22:26:59.873Z,55.48
2022-09-17T22:29:02.473Z,55.34
2022-09-17T22:31:06.618Z,56.04
2022-09-17T22:33:08.635Z,56.10
2022-09-17T22:35:10.206Z,55.25
2022-09-17T22:37:13.194Z,55.12
2022-09-17T22:39:15.396Z,55.74
2022-09-17T22:41:18.714Z,55.84
2022-09-17T22:43:20.549Z,55.37
2022-09-17T22:45:22.149Z,55.74
2022-09-17T22:47:23.643Z,54.70
2022-09-17T22:49:25.293Z,54.66
2022-09-17T22:51:28.312Z,54.33
2022-09-17T22:53:31.398Z,53.71
2022-09-17T22:55:32.913Z,54.47
2022-09-17T22:57:34.443Z,54.50
2022-09-17T22:59:36.183Z,55.85
2022-09-17T23:01:39.155Z,54.20
2022-09-17T23:03:41.414Z,54.33
2022-09-17T23:05:42.953Z,55.27
2022-09-17T23:07:44.564Z,54.44
2022-09-17T23:09:47.545Z,54.65
2022-09-17T23:11:49.242Z,54.87
2022-09-17T23:13:51.590Z,55.39
2022-09-17T23:15:53.224Z,54.81
2022-09-17T23:17:54.834Z,55.30
2022-09-17T23:19:56.582Z,54.72
2022-09-17T23:21:58.408Z,54.14
2022-09-17T23:24:00.203Z,55.93
2022-09-17T23:26:05.015Z,55.14
2022-09-17T23:28:06.560Z,54.25
2022-09-17T23:30:09.510Z,54.01
2022-09-17T23:32:11.066Z,56.02
2022-09-17T23:34:12.633Z,54.70
2022-09-17T23:36:16.154Z,54.31
2022-09-17T23:38:19.782Z,53.90
2022-09-17T23:40:21.405Z,54.60
2022-09-17T23:42:24.273Z,54.77
2022-09-17T23:44:26.029Z,55.38
2022-09-17T23:46:30.116Z,54.89
2022-09-17T23:48:31.690Z,54.76
2022-09-17T23:50:33.265Z,54.78
2022-09-17T23:52:34.874Z,55.01
2022-09-17T23:54:36.413Z,56.47
2022-09-17T23:56:38.016Z,56.40
2022-09-17T23:58:41.152Z,56.40
